sensor_id;sensor_type;location;lat;lon;timestamp;P1;durP1;ratioP1;P2;durP2;ratioP2
261;SDS011;114;48.260;10.988;2023-06-19T00:01:08;12.73;;;8.93;;
261;SDS011;114;48.260;10.988;2023-06-19T00:03:35;14.40;;;8.23;;
261;SDS011;114;48.260;10.988;2023-06-19T00:06:02;11.53;;;8.50;;
261;SDS011;114;48.260;10.988;2023-06-19T00:08:27;10.87;;;9.80;;
261;SDS011;114;48.260;10.988;2023-06-19T00:10:54;8.73;;;8.07;;
261;SDS011;114;48.260;10.988;2023-06-19T00:13:20;16.57;;;9.40;;
261;SDS011;114;48.260;10.988;2023-06-19T00:15:48;15.83;;;8.90;;
261;SDS011;114;48.260;10.988;2023-06-19T00:18:15;13.43;;;8.90;;
261;SDS011;114;48.260;10.988;2023-06-19T00:20:43;10.17;;;9.27;;
261;SDS011;114;48.260;10.988;2023-06-19T00:23:10;10.90;;;9.90;;
261;SDS011;114;48.260;10.988;2023-06-19T00:25:39;12.30;;;9.40;;
261;SDS011;114;48.260;10.988;2023-06-19T00:28:05;10.03;;;8.97;;
261;SDS011;114;48.260;10.988;2023-06-19T00:30:36;14.30;;;9.47;;
261;SDS011;114;48.260;10.988;2023-06-19T00:33:02;11.43;;;9.37;;
261;SDS011;114;48.260;10.988;2023-06-19T00:35:29;9.43;;;8.57;;
261;SDS011;114;48.260;10.988;2023-06-19T00:37:55;13.53;;;9.27;;
261;SDS011;114;48.260;10.988;2023-06-19T00:40:31;14.10;;;9.30;;
261;SDS011;114;48.260;10.988;2023-06-19T00:42:58;10.33;;;9.33;;
261;SDS011;114;48.260;10.988;2023-06-19T00:45:24;9.20;;;8.40;;
261;SDS011;114;48.260;10.988;2023-06-19T00:47:53;12.10;;;9.00;;
261;SDS011;114;48.260;10.988;2023-06-19T00:50:19;13.67;;;8.60;;
261;SDS011;114;48.260;10.988;2023-06-19T00:55:19;9.50;;;8.60;;
261;SDS011;114;48.260;10.988;2023-06-19T00:57:49;11.40;;;9.10;;
261;SDS011;114;48.260;10.988;2023-06-19T01:00:16;10.00;;;9.00;;
261;SDS011;114;48.260;10.988;2023-06-19T01:02:43;10.87;;;8.97;;
261;SDS011;114;48.260;10.988;2023-06-19T01:05:12;10.73;;;9.63;;
261;SDS011;114;48.260;10.988;2023-06-19T01:07:59;12.53;;;10.03;;
261;SDS011;114;48.260;10.988;2023-06-19T01:10:43;11.77;;;9.67;;
261;SDS011;114;48.260;10.988;2023-06-19T01:13:17;10.17;;;9.10;;
261;SDS011;114;48.260;10.988;2023-06-19T01:16:03;12.63;;;10.23;;
261;SDS011;114;48.260;10.988;2023-06-19T01:18:31;11.63;;;9.33;;
261;SDS011;114;48.260;10.988;2023-06-19T01:23:41;14.43;;;9.60;;
261;SDS011;114;48.260;10.988;2023-06-19T01:26:09;13.20;;;9.97;;
261;SDS011;114;48.260;10.988;2023-06-19T01:28:35;15.07;;;10.67;;
261;SDS011;114;48.260;10.988;2023-06-19T01:31:04;13.00;;;9.67;;
261;SDS011;114;48.260;10.988;2023-06-19T01:33:47;12.53;;;9.17;;
261;SDS011;114;48.260;10.988;2023-06-19T01:36:18;10.83;;;9.77;;
261;SDS011;114;48.260;10.988;2023-06-19T01:38:48;11.83;;;10.23;;
261;SDS011;114;48.260;10.988;2023-06-19T01:41:15;11.00;;;10.00;;
261;SDS011;114;48.260;10.988;2023-06-19T01:43:42;13.07;;;10.50;;
261;SDS011;114;48.260;10.988;2023-06-19T01:46:09;10.30;;;9.30;;
261;SDS011;114;48.260;10.988;2023-06-19T01:48:35;11.33;;;9.13;;
261;SDS011;114;48.260;10.988;2023-06-19T01:51:04;11.13;;;9.80;;
261;SDS011;114;48.260;10.988;2023-06-19T01:53:30;16.03;;;9.07;;
261;SDS011;114;48.260;10.988;2023-06-19T01:55:57;9.70;;;8.90;;
261;SDS011;114;48.260;10.988;2023-06-19T01:58:26;11.67;;;9.93;;
261;SDS011;114;48.260;10.988;2023-06-19T02:00:53;11.40;;;9.80;;
261;SDS011;114;48.260;10.988;2023-06-19T02:03:20;11.50;;;9.17;;
261;SDS011;114;48.260;10.988;2023-06-19T02:05:49;13.27;;;9.63;;
261;SDS011;114;48.260;10.988;2023-06-19T02:08:15;10.97;;;9.33;;
261;SDS011;114;48.260;10.988;2023-06-19T02:10:41;25.33;;;10.60;;
261;SDS011;114;48.260;10.988;2023-06-19T02:13:08;14.80;;;9.10;;
261;SDS011;114;48.260;10.988;2023-06-19T02:15:34;12.37;;;9.63;;
261;SDS011;114;48.260;10.988;2023-06-19T02:18:00;14.53;;;9.97;;
261;SDS011;114;48.260;10.988;2023-06-19T02:20:26;12.43;;;10.27;;
261;SDS011;114;48.260;10.988;2023-06-19T02:22:52;14.30;;;10.10;;
261;SDS011;114;48.260;10.988;2023-06-19T02:25:19;11.23;;;9.97;;
261;SDS011;114;48.260;10.988;2023-06-19T02:27:45;12.13;;;9.73;;
261;SDS011;114;48.260;10.988;2023-06-19T02:30:10;12.03;;;9.90;;
261;SDS011;114;48.260;10.988;2023-06-19T02:32:36;12.40;;;11.00;;
261;SDS011;114;48.260;10.988;2023-06-19T02:35:04;10.83;;;9.70;;
261;SDS011;114;48.260;10.988;2023-06-19T02:37:33;11.13;;;10.07;;
261;SDS011;114;48.260;10.988;2023-06-19T02:40:04;11.10;;;9.90;;
261;SDS011;114;48.260;10.988;2023-06-19T02:42:31;12.30;;;10.80;;
261;SDS011;114;48.260;10.988;2023-06-19T02:44:57;15.37;;;11.20;;
261;SDS011;114;48.260;10.988;2023-06-19T02:47:28;21.53;;;10.50;;
261;SDS011;114;48.260;10.988;2023-06-19T02:49:56;16.97;;;11.37;;
261;SDS011;114;48.260;10.988;2023-06-19T02:52:22;14.40;;;11.47;;
261;SDS011;114;48.260;10.988;2023-06-19T02:54:48;11.87;;;10.47;;
261;SDS011;114;48.260;10.988;2023-06-19T02:57:14;22.33;;;12.70;;
261;SDS011;114;48.260;10.988;2023-06-19T02:59:40;13.00;;;11.80;;
261;SDS011;114;48.260;10.988;2023-06-19T03:02:06;14.60;;;13.10;;
261;SDS011;114;48.260;10.988;2023-06-19T03:04:33;15.40;;;12.30;;
261;SDS011;114;48.260;10.988;2023-06-19T03:06:58;13.90;;;12.57;;
261;SDS011;114;48.260;10.988;2023-06-19T03:09:25;19.40;;;12.17;;
261;SDS011;114;48.260;10.988;2023-06-19T03:11:52;18.50;;;11.50;;
261;SDS011;114;48.260;10.988;2023-06-19T03:14:17;12.23;;;10.73;;
261;SDS011;114;48.260;10.988;2023-06-19T03:16:43;22.03;;;12.63;;
261;SDS011;114;48.260;10.988;2023-06-19T03:19:09;15.57;;;10.97;;
261;SDS011;114;48.260;10.988;2023-06-19T03:21:34;13.43;;;11.70;;
261;SDS011;114;48.260;10.988;2023-06-19T03:24:00;12.53;;;9.97;;
261;SDS011;114;48.260;10.988;2023-06-19T03:26:27;19.40;;;11.60;;
261;SDS011;114;48.260;10.988;2023-06-19T03:28:52;15.93;;;10.80;;
261;SDS011;114;48.260;10.988;2023-06-19T03:31:18;12.03;;;10.83;;
261;SDS011;114;48.260;10.988;2023-06-19T03:33:44;13.90;;;11.83;;
261;SDS011;114;48.260;10.988;2023-06-19T03:36:10;15.17;;;9.83;;
261;SDS011;114;48.260;10.988;2023-06-19T03:38:35;12.23;;;11.03;;
261;SDS011;114;48.260;10.988;2023-06-19T03:41:01;15.50;;;11.90;;
261;SDS011;114;48.260;10.988;2023-06-19T03:43:27;12.10;;;10.80;;
261;SDS011;114;48.260;10.988;2023-06-19T03:45:54;14.53;;;10.40;;
261;SDS011;114;48.260;10.988;2023-06-19T03:48:19;15.10;;;11.80;;
261;SDS011;114;48.260;10.988;2023-06-19T03:50:45;13.93;;;11.73;;
261;SDS011;114;48.260;10.988;2023-06-19T03:53:11;11.63;;;10.43;;
261;SDS011;114;48.260;10.988;2023-06-19T03:55:37;12.07;;;10.93;;
261;SDS011;114;48.260;10.988;2023-06-19T03:58:02;13.87;;;11.63;;
261;SDS011;114;48.260;10.988;2023-06-19T04:00:28;12.10;;;10.70;;
261;SDS011;114;48.260;10.988;2023-06-19T04:02:54;11.50;;;10.40;;
261;SDS011;114;48.260;10.988;2023-06-19T04:05:22;11.53;;;10.40;;
261;SDS011;114;48.260;10.988;2023-06-19T04:07:48;17.33;;;11.87;;
261;SDS011;114;48.260;10.988;2023-06-19T04:10:16;11.83;;;10.60;;
261;SDS011;114;48.260;10.988;2023-06-19T04:12:41;14.10;;;11.60;;
261;SDS011;114;48.260;10.988;2023-06-19T04:15:07;12.40;;;9.90;;
261;SDS011;114;48.260;10.988;2023-06-19T04:17:34;13.47;;;12.17;;
261;SDS011;114;48.260;10.988;2023-06-19T04:20:01;13.13;;;10.90;;
261;SDS011;114;48.260;10.988;2023-06-19T04:22:36;11.67;;;10.50;;
261;SDS011;114;48.260;10.988;2023-06-19T04:25:05;13.33;;;11.80;;
261;SDS011;114;48.260;10.988;2023-06-19T04:27:36;12.57;;;11.27;;
261;SDS011;114;48.260;10.988;2023-06-19T04:30:03;15.30;;;12.37;;
261;SDS011;114;48.260;10.988;2023-06-19T04:32:29;12.33;;;11.10;;
261;SDS011;114;48.260;10.988;2023-06-19T04:34:55;13.70;;;11.33;;
261;SDS011;114;48.260;10.988;2023-06-19T04:37:22;16.10;;;11.50;;
261;SDS011;114;48.260;10.988;2023-06-19T04:39:48;10.50;;;9.57;;
261;SDS011;114;48.260;10.988;2023-06-19T04:42:15;13.40;;;11.37;;
261;SDS011;114;48.260;10.988;2023-06-19T04:44:48;13.30;;;10.60;;
261;SDS011;114;48.260;10.988;2023-06-19T04:47:22;11.80;;;10.60;;
261;SDS011;114;48.260;10.988;2023-06-19T04:49:48;10.80;;;9.70;;
261;SDS011;114;48.260;10.988;2023-06-19T04:52:16;11.60;;;9.33;;
261;SDS011;114;48.260;10.988;2023-06-19T04:54:43;9.63;;;8.77;;
261;SDS011;114;48.260;10.988;2023-06-19T04:57:09;10.20;;;9.30;;
261;SDS011;114;48.260;10.988;2023-06-19T04:59:35;12.10;;;9.40;;
261;SDS011;114;48.260;10.988;2023-06-19T05:02:02;13.20;;;8.60;;
261;SDS011;114;48.260;10.988;2023-06-19T05:04:30;10.60;;;8.00;;
261;SDS011;114;48.260;10.988;2023-06-19T05:06:57;9.20;;;8.40;;
261;SDS011;114;48.260;10.988;2023-06-19T05:09:24;9.20;;;8.40;;
261;SDS011;114;48.260;10.988;2023-06-19T05:11:50;8.70;;;7.90;;
261;SDS011;114;48.260;10.988;2023-06-19T05:14:16;12.10;;;7.80;;
261;SDS011;114;48.260;10.988;2023-06-19T05:16:42;8.70;;;7.90;;
261;SDS011;114;48.260;10.988;2023-06-19T05:19:09;11.80;;;8.63;;
261;SDS011;114;48.260;10.988;2023-06-19T05:21:35;7.73;;;7.13;;
261;SDS011;114;48.260;10.988;2023-06-19T05:24:01;8.10;;;7.40;;
261;SDS011;114;48.260;10.988;2023-06-19T05:26:27;14.13;;;7.90;;
261;SDS011;114;48.260;10.988;2023-06-19T05:28:54;17.87;;;8.57;;
261;SDS011;114;48.260;10.988;2023-06-19T05:31:23;12.10;;;7.90;;
261;SDS011;114;48.260;10.988;2023-06-19T05:33:48;15.67;;;7.70;;
261;SDS011;114;48.260;10.988;2023-06-19T05:36:14;10.90;;;7.00;;
261;SDS011;114;48.260;10.988;2023-06-19T05:38:40;10.07;;;7.80;;
261;SDS011;114;48.260;10.988;2023-06-19T05:41:06;16.73;;;6.70;;
261;SDS011;114;48.260;10.988;2023-06-19T05:43:33;10.57;;;7.60;;
261;SDS011;114;48.260;10.988;2023-06-19T05:46:00;15.87;;;7.83;;
261;SDS011;114;48.260;10.988;2023-06-19T05:48:27;9.90;;;7.77;;
261;SDS011;114;48.260;10.988;2023-06-19T05:53:23;8.73;;;6.93;;
261;SDS011;114;48.260;10.988;2023-06-19T05:55:49;7.30;;;6.50;;
261;SDS011;114;48.260;10.988;2023-06-19T05:58:15;6.97;;;6.30;;
261;SDS011;114;48.260;10.988;2023-06-19T06:00:40;11.57;;;7.47;;
261;SDS011;114;48.260;10.988;2023-06-19T06:03:06;8.73;;;6.70;;
261;SDS011;114;48.260;10.988;2023-06-19T06:05:40;8.07;;;6.50;;
261;SDS011;114;48.260;10.988;2023-06-19T06:08:10;7.40;;;6.73;;
261;SDS011;114;48.260;10.988;2023-06-19T06:10:37;10.50;;;7.30;;
261;SDS011;114;48.260;10.988;2023-06-19T06:13:02;7.73;;;6.40;;
261;SDS011;114;48.260;10.988;2023-06-19T06:15:31;10.90;;;5.67;;
261;SDS011;114;48.260;10.988;2023-06-19T06:17:58;9.63;;;7.67;;
261;SDS011;114;48.260;10.988;2023-06-19T06:20:25;7.47;;;6.50;;
261;SDS011;114;48.260;10.988;2023-06-19T06:22:50;10.67;;;6.67;;
261;SDS011;114;48.260;10.988;2023-06-19T06:25:18;9.03;;;5.70;;
261;SDS011;114;48.260;10.988;2023-06-19T06:27:43;6.67;;;6.17;;
261;SDS011;114;48.260;10.988;2023-06-19T06:30:09;7.63;;;6.53;;
261;SDS011;114;48.260;10.988;2023-06-19T06:32:44;6.67;;;6.07;;
261;SDS011;114;48.260;10.988;2023-06-19T06:35:10;13.50;;;6.70;;
261;SDS011;114;48.260;10.988;2023-06-19T06:37:35;6.63;;;5.93;;
261;SDS011;114;48.260;10.988;2023-06-19T06:40:08;6.80;;;5.60;;
261;SDS011;114;48.260;10.988;2023-06-19T06:42:34;11.27;;;5.10;;
261;SDS011;114;48.260;10.988;2023-06-19T06:45:03;6.93;;;6.37;;
261;SDS011;114;48.260;10.988;2023-06-19T06:47:34;7.73;;;5.53;;
261;SDS011;114;48.260;10.988;2023-06-19T06:50:01;14.77;;;5.83;;
261;SDS011;114;48.260;10.988;2023-06-19T06:52:31;14.30;;;6.03;;
261;SDS011;114;48.260;10.988;2023-06-19T06:54:57;6.23;;;5.57;;
261;SDS011;114;48.260;10.988;2023-06-19T06:57:24;9.60;;;5.30;;
261;SDS011;114;48.260;10.988;2023-06-19T06:59:50;6.17;;;5.77;;
261;SDS011;114;48.260;10.988;2023-06-19T07:05:00;10.47;;;5.40;;
261;SDS011;114;48.260;10.988;2023-06-19T07:09:56;5.87;;;5.37;;
261;SDS011;114;48.260;10.988;2023-06-19T07:12:22;13.63;;;4.53;;
261;SDS011;114;48.260;10.988;2023-06-19T07:14:49;9.30;;;5.07;;
261;SDS011;114;48.260;10.988;2023-06-19T07:17:19;5.30;;;5.00;;
261;SDS011;114;48.260;10.988;2023-06-19T07:19:46;5.23;;;4.30;;
261;SDS011;114;48.260;10.988;2023-06-19T07:22:11;8.63;;;4.17;;
261;SDS011;114;48.260;10.988;2023-06-19T07:24:39;4.60;;;4.30;;
261;SDS011;114;48.260;10.988;2023-06-19T07:27:06;4.27;;;3.87;;
261;SDS011;114;48.260;10.988;2023-06-19T07:29:32;11.50;;;4.70;;
261;SDS011;114;48.260;10.988;2023-06-19T07:31:58;4.93;;;4.63;;
261;SDS011;114;48.260;10.988;2023-06-19T07:34:24;5.90;;;5.40;;
261;SDS011;114;48.260;10.988;2023-06-19T07:36:50;9.93;;;5.20;;
261;SDS011;114;48.260;10.988;2023-06-19T07:39:16;5.63;;;5.13;;
261;SDS011;114;48.260;10.988;2023-06-19T07:41:42;4.77;;;4.37;;
261;SDS011;114;48.260;10.988;2023-06-19T07:44:07;5.37;;;4.97;;
261;SDS011;114;48.260;10.988;2023-06-19T07:46:33;5.37;;;4.97;;
261;SDS011;114;48.260;10.988;2023-06-19T07:48:59;5.17;;;4.80;;
261;SDS011;114;48.260;10.988;2023-06-19T07:51:26;5.13;;;4.73;;
261;SDS011;114;48.260;10.988;2023-06-19T07:53:51;7.33;;;4.73;;
261;SDS011;114;48.260;10.988;2023-06-19T07:56:17;5.10;;;4.77;;
261;SDS011;114;48.260;10.988;2023-06-19T07:58:43;5.43;;;5.03;;
261;SDS011;114;48.260;10.988;2023-06-19T08:01:11;4.97;;;4.57;;
261;SDS011;114;48.260;10.988;2023-06-19T08:03:38;5.67;;;5.07;;
261;SDS011;114;48.260;10.988;2023-06-19T08:06:05;5.43;;;4.93;;
261;SDS011;114;48.260;10.988;2023-06-19T08:08:31;5.13;;;4.63;;
261;SDS011;114;48.260;10.988;2023-06-19T08:10:57;5.43;;;4.97;;
261;SDS011;114;48.260;10.988;2023-06-19T08:13:22;5.00;;;4.60;;
261;SDS011;114;48.260;10.988;2023-06-19T08:15:48;4.93;;;4.47;;
261;SDS011;114;48.260;10.988;2023-06-19T08:18:14;8.23;;;4.30;;
261;SDS011;114;48.260;10.988;2023-06-19T08:20:40;4.70;;;4.40;;
261;SDS011;114;48.260;10.988;2023-06-19T08:23:05;4.70;;;4.40;;
261;SDS011;114;48.260;10.988;2023-06-19T08:25:31;17.43;;;5.13;;
261;SDS011;114;48.260;10.988;2023-06-19T08:30:26;6.93;;;4.70;;
261;SDS011;114;48.260;10.988;2023-06-19T08:32:52;13.53;;;5.10;;
261;SDS011;114;48.260;10.988;2023-06-19T08:35:19;5.30;;;4.90;;
261;SDS011;114;48.260;10.988;2023-06-19T08:37:52;5.97;;;4.30;;
261;SDS011;114;48.260;10.988;2023-06-19T08:40:19;4.73;;;4.43;;
261;SDS011;114;48.260;10.988;2023-06-19T08:42:45;7.90;;;4.50;;
261;SDS011;114;48.260;10.988;2023-06-19T08:45:14;5.30;;;4.90;;
261;SDS011;114;48.260;10.988;2023-06-19T08:47:41;4.50;;;4.10;;
261;SDS011;114;48.260;10.988;2023-06-19T08:50:07;8.40;;;5.20;;
261;SDS011;114;48.260;10.988;2023-06-19T08:52:33;5.27;;;4.87;;
261;SDS011;114;48.260;10.988;2023-06-19T08:54:59;5.73;;;5.23;;
261;SDS011;114;48.260;10.988;2023-06-19T08:57:32;5.27;;;4.53;;
261;SDS011;114;48.260;10.988;2023-06-19T08:59:59;10.60;;;5.07;;
261;SDS011;114;48.260;10.988;2023-06-19T09:02:35;8.73;;;4.60;;
261;SDS011;114;48.260;10.988;2023-06-19T09:05:11;8.73;;;4.67;;
261;SDS011;114;48.260;10.988;2023-06-19T09:07:40;5.70;;;5.07;;
261;SDS011;114;48.260;10.988;2023-06-19T09:10:16;4.03;;;3.83;;
261;SDS011;114;48.260;10.988;2023-06-19T09:12:43;6.70;;;4.20;;
261;SDS011;114;48.260;10.988;2023-06-19T09:15:14;5.00;;;3.90;;
261;SDS011;114;48.260;10.988;2023-06-19T09:17:40;10.33;;;4.60;;
261;SDS011;114;48.260;10.988;2023-06-19T09:20:06;5.00;;;4.60;;
261;SDS011;114;48.260;10.988;2023-06-19T09:22:34;4.40;;;4.10;;
261;SDS011;114;48.260;10.988;2023-06-19T09:25:00;5.00;;;4.57;;
261;SDS011;114;48.260;10.988;2023-06-19T09:27:31;6.23;;;4.57;;
261;SDS011;114;48.260;10.988;2023-06-19T09:30:00;3.87;;;3.60;;
261;SDS011;114;48.260;10.988;2023-06-19T09:32:28;4.00;;;3.37;;
261;SDS011;114;48.260;10.988;2023-06-19T09:34:55;4.00;;;3.80;;
261;SDS011;114;48.260;10.988;2023-06-19T09:37:29;4.87;;;4.33;;
261;SDS011;114;48.260;10.988;2023-06-19T09:40:00;4.10;;;3.80;;
261;SDS011;114;48.260;10.988;2023-06-19T09:42:38;4.97;;;4.18;;
261;SDS011;114;48.260;10.988;2023-06-19T09:45:06;4.23;;;3.50;;
261;SDS011;114;48.260;10.988;2023-06-19T09:47:44;4.03;;;3.73;;
261;SDS011;114;48.260;10.988;2023-06-19T09:50:18;3.80;;;3.50;;
261;SDS011;114;48.260;10.988;2023-06-19T09:52:47;5.47;;;4.07;;
261;SDS011;114;48.260;10.988;2023-06-19T09:55:16;4.00;;;3.63;;
261;SDS011;114;48.260;10.988;2023-06-19T09:57:44;4.03;;;3.70;;
261;SDS011;114;48.260;10.988;2023-06-19T10:00:12;3.87;;;3.43;;
261;SDS011;114;48.260;10.988;2023-06-19T10:02:43;3.90;;;3.60;;
261;SDS011;114;48.260;10.988;2023-06-19T10:05:10;5.20;;;3.30;;
261;SDS011;114;48.260;10.988;2023-06-19T10:07:41;5.30;;;3.53;;
261;SDS011;114;48.260;10.988;2023-06-19T10:10:09;4.00;;;2.80;;
261;SDS011;114;48.260;10.988;2023-06-19T10:12:42;3.80;;;3.60;;
261;SDS011;114;48.260;10.988;2023-06-19T10:17:37;3.53;;;3.33;;
261;SDS011;114;48.260;10.988;2023-06-19T10:20:03;5.90;;;2.97;;
261;SDS011;114;48.260;10.988;2023-06-19T10:22:32;5.93;;;3.13;;
261;SDS011;114;48.260;10.988;2023-06-19T10:24:59;3.60;;;3.30;;
261;SDS011;114;48.260;10.988;2023-06-19T10:27:25;12.33;;;3.30;;
261;SDS011;114;48.260;10.988;2023-06-19T10:29:54;3.63;;;3.33;;
261;SDS011;114;48.260;10.988;2023-06-19T10:32:22;3.50;;;3.40;;
261;SDS011;114;48.260;10.988;2023-06-19T10:34:48;4.03;;;3.73;;
261;SDS011;114;48.260;10.988;2023-06-19T10:37:15;5.50;;;3.87;;
261;SDS011;114;48.260;10.988;2023-06-19T10:39:43;3.10;;;3.00;;
261;SDS011;114;48.260;10.988;2023-06-19T10:42:09;7.33;;;3.30;;
261;SDS011;114;48.260;10.988;2023-06-19T10:44:36;3.80;;;3.60;;
261;SDS011;114;48.260;10.988;2023-06-19T10:47:07;7.83;;;4.13;;
261;SDS011;114;48.260;10.988;2023-06-19T10:49:33;4.80;;;4.40;;
261;SDS011;114;48.260;10.988;2023-06-19T10:51:59;6.93;;;3.73;;
261;SDS011;114;48.260;10.988;2023-06-19T10:54:27;5.20;;;3.50;;
261;SDS011;114;48.260;10.988;2023-06-19T10:56:55;2.90;;;2.80;;
261;SDS011;114;48.260;10.988;2023-06-19T10:59:22;3.63;;;3.38;;
261;SDS011;114;48.260;10.988;2023-06-19T11:01:48;12.77;;;2.93;;
261;SDS011;114;48.260;10.988;2023-06-19T11:04:16;3.30;;;3.03;;
261;SDS011;114;48.260;10.988;2023-06-19T11:06:43;3.53;;;2.83;;
261;SDS011;114;48.260;10.988;2023-06-19T11:09:11;2.30;;;2.17;;
261;SDS011;114;48.260;10.988;2023-06-19T11:11:41;2.75;;;2.00;;
261;SDS011;114;48.260;10.988;2023-06-19T11:14:09;2.13;;;2.03;;
261;SDS011;114;48.260;10.988;2023-06-19T11:16:39;2.42;;;2.30;;
261;SDS011;114;48.260;10.988;2023-06-19T11:19:07;7.90;;;1.90;;
261;SDS011;114;48.260;10.988;2023-06-19T11:21:35;2.75;;;1.95;;
261;SDS011;114;48.260;10.988;2023-06-19T11:24:11;2.15;;;2.05;;
261;SDS011;114;48.260;10.988;2023-06-19T11:26:38;1.70;;;1.60;;
261;SDS011;114;48.260;10.988;2023-06-19T11:29:42;3.47;;;1.60;;
261;SDS011;114;48.260;10.988;2023-06-19T11:32:08;1.75;;;1.65;;
261;SDS011;114;48.260;10.988;2023-06-19T11:34:36;1.77;;;1.67;;
261;SDS011;114;48.260;10.988;2023-06-19T11:39:41;2.08;;;1.98;;
261;SDS011;114;48.260;10.988;2023-06-19T11:42:09;1.80;;;1.70;;
261;SDS011;114;48.260;10.988;2023-06-19T11:44:35;2.60;;;1.65;;
261;SDS011;114;48.260;10.988;2023-06-19T11:47:00;4.00;;;1.50;;
261;SDS011;114;48.260;10.988;2023-06-19T11:49:28;1.60;;;1.50;;
261;SDS011;114;48.260;10.988;2023-06-19T11:52:01;1.73;;;1.48;;
261;SDS011;114;48.260;10.988;2023-06-19T11:54:27;1.63;;;1.52;;
261;SDS011;114;48.260;10.988;2023-06-19T11:56:53;1.60;;;1.50;;
261;SDS011;114;48.260;10.988;2023-06-19T11:59:19;2.15;;;2.03;;
261;SDS011;114;48.260;10.988;2023-06-19T12:01:45;1.80;;;1.70;;
261;SDS011;114;48.260;10.988;2023-06-19T12:04:13;4.00;;;1.90;;
261;SDS011;114;48.260;10.988;2023-06-19T12:06:40;1.90;;;1.80;;
261;SDS011;114;48.260;10.988;2023-06-19T12:09:05;1.90;;;1.80;;
261;SDS011;114;48.260;10.988;2023-06-19T12:11:32;12.82;;;1.85;;
261;SDS011;114;48.260;10.988;2023-06-19T12:13:58;2.72;;;1.90;;
261;SDS011;114;48.260;10.988;2023-06-19T12:16:25;1.80;;;1.70;;
261;SDS011;114;48.260;10.988;2023-06-19T12:18:53;2.13;;;1.92;;
261;SDS011;114;48.260;10.988;2023-06-19T12:21:19;1.73;;;1.63;;
261;SDS011;114;48.260;10.988;2023-06-19T12:23:44;2.33;;;2.22;;
261;SDS011;114;48.260;10.988;2023-06-19T12:26:11;2.28;;;2.17;;
261;SDS011;114;48.260;10.988;2023-06-19T12:28:37;3.58;;;1.88;;
261;SDS011;114;48.260;10.988;2023-06-19T12:31:03;5.88;;;2.17;;
261;SDS011;114;48.260;10.988;2023-06-19T12:33:37;3.60;;;2.30;;
261;SDS011;114;48.260;10.988;2023-06-19T12:36:10;2.88;;;1.90;;
261;SDS011;114;48.260;10.988;2023-06-19T12:38:44;2.05;;;1.95;;
261;SDS011;114;48.260;10.988;2023-06-19T12:41:12;2.08;;;1.80;;
261;SDS011;114;48.260;10.988;2023-06-19T12:43:37;1.98;;;1.88;;
261;SDS011;114;48.260;10.988;2023-06-19T12:46:06;7.60;;;1.98;;
261;SDS011;114;48.260;10.988;2023-06-19T12:48:32;1.52;;;1.42;;
261;SDS011;114;48.260;10.988;2023-06-19T12:50:58;1.30;;;1.25;;
261;SDS011;114;48.260;10.988;2023-06-19T12:53:24;1.27;;;1.27;;
261;SDS011;114;48.260;10.988;2023-06-19T12:55:54;1.75;;;1.75;;
261;SDS011;114;48.260;10.988;2023-06-19T12:58:22;1.48;;;1.38;;
261;SDS011;114;48.260;10.988;2023-06-19T13:00:48;2.58;;;1.60;;
261;SDS011;114;48.260;10.988;2023-06-19T13:03:15;1.98;;;1.40;;
261;SDS011;114;48.260;10.988;2023-06-19T13:05:42;1.42;;;1.30;;
261;SDS011;114;48.260;10.988;2023-06-19T13:08:13;1.27;;;1.17;;
261;SDS011;114;48.260;10.988;2023-06-19T13:13:09;0.73;;;0.73;;
261;SDS011;114;48.260;10.988;2023-06-19T13:15:38;0.98;;;0.98;;
261;SDS011;114;48.260;10.988;2023-06-19T13:18:04;1.00;;;1.00;;
261;SDS011;114;48.260;10.988;2023-06-19T13:20:30;0.80;;;0.80;;
261;SDS011;114;48.260;10.988;2023-06-19T13:22:56;1.63;;;0.63;;
261;SDS011;114;48.260;10.988;2023-06-19T13:25:23;0.80;;;0.80;;
261;SDS011;114;48.260;10.988;2023-06-19T13:27:58;0.80;;;0.65;;
261;SDS011;114;48.260;10.988;2023-06-19T13:30:26;0.90;;;0.88;;
261;SDS011;114;48.260;10.988;2023-06-19T13:32:52;1.35;;;1.08;;
261;SDS011;114;48.260;10.988;2023-06-19T13:35:18;1.48;;;0.70;;
261;SDS011;114;48.260;10.988;2023-06-19T13:37:47;1.02;;;0.68;;
261;SDS011;114;48.260;10.988;2023-06-19T13:40:13;1.00;;;1.00;;
261;SDS011;114;48.260;10.988;2023-06-19T13:42:41;0.70;;;0.70;;
261;SDS011;114;48.260;10.988;2023-06-19T13:45:08;0.77;;;0.77;;
261;SDS011;114;48.260;10.988;2023-06-19T13:47:35;0.80;;;0.80;;
261;SDS011;114;48.260;10.988;2023-06-19T13:50:01;1.25;;;0.70;;
261;SDS011;114;48.260;10.988;2023-06-19T13:52:29;0.80;;;0.80;;
261;SDS011;114;48.260;10.988;2023-06-19T13:54:56;1.20;;;0.95;;
261;SDS011;114;48.260;10.988;2023-06-19T13:57:21;0.77;;;0.70;;
261;SDS011;114;48.260;10.988;2023-06-19T13:59:47;1.52;;;0.98;;
261;SDS011;114;48.260;10.988;2023-06-19T14:02:13;1.58;;;0.60;;
261;SDS011;114;48.260;10.988;2023-06-19T14:04:39;0.90;;;0.90;;
261;SDS011;114;48.260;10.988;2023-06-19T14:07:07;2.13;;;0.95;;
261;SDS011;114;48.260;10.988;2023-06-19T14:09:32;1.38;;;1.27;;
261;SDS011;114;48.260;10.988;2023-06-19T14:11:58;2.08;;;1.17;;
261;SDS011;114;48.260;10.988;2023-06-19T14:14:25;1.52;;;1.42;;
261;SDS011;114;48.260;10.988;2023-06-19T14:16:51;1.20;;;1.20;;
261;SDS011;114;48.260;10.988;2023-06-19T14:19:18;1.52;;;1.42;;
261;SDS011;114;48.260;10.988;2023-06-19T14:21:47;1.42;;;1.30;;
261;SDS011;114;48.260;10.988;2023-06-19T14:24:12;1.80;;;1.70;;
261;SDS011;114;48.260;10.988;2023-06-19T14:26:38;4.30;;;1.00;;
261;SDS011;114;48.260;10.988;2023-06-19T14:29:04;0.90;;;0.90;;
261;SDS011;114;48.260;10.988;2023-06-19T14:31:31;3.45;;;1.25;;
261;SDS011;114;48.260;10.988;2023-06-19T14:33:56;1.00;;;0.90;;
261;SDS011;114;48.260;10.988;2023-06-19T14:36:23;1.40;;;1.30;;
261;SDS011;114;48.260;10.988;2023-06-19T14:38:49;1.30;;;1.30;;
261;SDS011;114;48.260;10.988;2023-06-19T14:41:14;2.67;;;1.13;;
261;SDS011;114;48.260;10.988;2023-06-19T14:43:40;1.27;;;1.17;;
261;SDS011;114;48.260;10.988;2023-06-19T14:46:07;2.35;;;1.10;;
261;SDS011;114;48.260;10.988;2023-06-19T14:48:32;1.38;;;1.38;;
261;SDS011;114;48.260;10.988;2023-06-19T14:50:58;2.50;;;1.13;;
261;SDS011;114;48.260;10.988;2023-06-19T14:53:25;1.75;;;1.13;;
261;SDS011;114;48.260;10.988;2023-06-19T14:55:52;1.15;;;1.15;;
261;SDS011;114;48.260;10.988;2023-06-19T14:58:18;0.90;;;0.90;;
261;SDS011;114;48.260;10.988;2023-06-19T15:00:43;1.35;;;1.25;;
261;SDS011;114;48.260;10.988;2023-06-19T15:03:09;5.88;;;2.25;;
261;SDS011;114;48.260;10.988;2023-06-19T15:05:35;1.80;;;1.70;;
261;SDS011;114;48.260;10.988;2023-06-19T15:08:01;1.83;;;1.30;;
261;SDS011;114;48.260;10.988;2023-06-19T15:10:34;2.47;;;1.15;;
261;SDS011;114;48.260;10.988;2023-06-19T15:13:00;1.70;;;1.60;;
261;SDS011;114;48.260;10.988;2023-06-19T15:15:25;1.38;;;1.10;;
261;SDS011;114;48.260;10.988;2023-06-19T15:17:52;2.88;;;1.42;;
261;SDS011;114;48.260;10.988;2023-06-19T15:20:19;2.45;;;1.13;;
261;SDS011;114;48.260;10.988;2023-06-19T15:22:46;5.45;;;1.35;;
261;SDS011;114;48.260;10.988;2023-06-19T15:25:14;1.08;;;0.98;;
261;SDS011;114;48.260;10.988;2023-06-19T15:27:40;1.88;;;1.77;;
261;SDS011;114;48.260;10.988;2023-06-19T15:30:06;1.48;;;1.40;;
261;SDS011;114;48.260;10.988;2023-06-19T15:32:33;1.30;;;1.30;;
261;SDS011;114;48.260;10.988;2023-06-19T15:35:00;6.47;;;1.08;;
261;SDS011;114;48.260;10.988;2023-06-19T15:37:26;1.65;;;1.60;;
261;SDS011;114;48.260;10.988;2023-06-19T15:39:53;2.58;;;1.45;;
261;SDS011;114;48.260;10.988;2023-06-19T15:42:20;2.85;;;1.50;;
261;SDS011;114;48.260;10.988;2023-06-19T15:44:46;1.73;;;1.63;;
261;SDS011;114;48.260;10.988;2023-06-19T15:47:12;1.30;;;1.20;;